Terminal Aerodrome Forecast
Issued by NWS

Home | Current Version | Previous Version | Text Only | Print | Product List | Glossary On
Versions: 1 2 3 4 5 6 7 8 9 10 11 12
000
FTUS44 KLUB 060520
TAFCDS
TAF
KCDS 060520Z 0606/0706 16008KT P6SM BKN250
     FM061400 19014G20KT P6SM SCT050 SCT250
     FM062000 17015G21KT P6SM BKN050 BKN200 PROB30 0701/0706 6SM
      TSRA BKN050CB=

USA.gov is the U.S. government's official web portal to all federal, state and local government web resources and services.